sensor_id;sensor_type;location;lat;lon;timestamp;pressure;altitude;pressure_sealevel;temperature;humidity
10006;BME280;5042;42.626;23.382;2023-09-19T00:02:21;153290.78;;;16.60;100.00
10006;BME280;5042;42.626;23.382;2023-09-19T00:04:48;153255.59;;;16.46;100.00
10006;BME280;5042;42.626;23.382;2023-09-19T00:07:15;153271.25;;;16.52;100.00
10006;BME280;5042;42.626;23.382;2023-09-19T00:09:43;153256.94;;;16.47;100.00
10006;BME280;5042;42.626;23.382;2023-09-19T00:12:10;153221.75;;;16.33;100.00
10006;BME280;5042;42.626;23.382;2023-09-19T00:14:38;153198.31;;;16.24;100.00
10006;BME280;5042;42.626;23.382;2023-09-19T00:17:05;153197.03;;;16.23;100.00
10006;BME280;5042;42.626;23.382;2023-09-19T00:19:35;153180.09;;;16.17;100.00
10006;BME280;5042;42.626;23.382;2023-09-19T00:22:03;153174.88;;;16.15;100.00
10006;BME280;5042;42.626;23.382;2023-09-19T00:24:30;153172.28;;;16.14;100.00
10006;BME280;5042;42.626;23.382;2023-09-19T00:26:57;153161.84;;;16.09;100.00
10006;BME280;5042;42.626;23.382;2023-09-19T00:29:25;153170.94;;;16.13;100.00
10006;BME280;5042;42.626;23.382;2023-09-19T00:31:54;153164.44;;;16.10;100.00
10006;BME280;5042;42.626;23.382;2023-09-19T00:34:21;153150.13;;;16.05;100.00
10006;BME280;5042;42.626;23.382;2023-09-19T00:36:50;153148.84;;;16.04;100.00
10006;BME280;5042;42.626;23.382;2023-09-19T00:39:18;153151.41;;;16.05;100.00
10006;BME280;5042;42.626;23.382;2023-09-19T00:41:45;153139.69;;;16.01;100.00
10006;BME280;5042;42.626;23.382;2023-09-19T00:44:13;153135.81;;;15.99;100.00
10006;BME280;5042;42.626;23.382;2023-09-19T00:46:41;153135.81;;;15.99;100.00
10006;BME280;5042;42.626;23.382;2023-09-19T00:49:09;153148.84;;;16.04;100.00
10006;BME280;5042;42.626;23.382;2023-09-19T00:51:36;153152.72;;;16.06;100.00
10006;BME280;5042;42.626;23.382;2023-09-19T00:54:05;153143.63;;;16.02;100.00
10006;BME280;5042;42.626;23.382;2023-09-19T00:56:32;153129.28;;;15.97;100.00
10006;BME280;5042;42.626;23.382;2023-09-19T00:58:59;153120.19;;;15.93;100.00
10006;BME280;5042;42.626;23.382;2023-09-19T01:01:26;153108.47;;;15.88;100.00
10006;BME280;5042;42.626;23.382;2023-09-19T01:03:53;153092.81;;;15.82;100.00
10006;BME280;5042;42.626;23.382;2023-09-19T01:06:20;153109.75;;;15.89;100.00
10006;BME280;5042;42.626;23.382;2023-09-19T01:08:47;153091.53;;;15.82;100.00
10006;BME280;5042;42.626;23.382;2023-09-19T01:11:21;153073.31;;;15.75;100.00
10006;BME280;5042;42.626;23.382;2023-09-19T01:13:58;153086.31;;;15.80;100.00
10006;BME280;5042;42.626;23.382;2023-09-19T01:16:33;153039.44;;;15.61;100.00
10006;BME280;5042;42.626;23.382;2023-09-19T01:19:27;153038.09;;;15.61;100.00
10006;BME280;5042;42.626;23.382;2023-09-19T01:22:06;153036.81;;;15.60;100.00
10006;BME280;5042;42.626;23.382;2023-09-19T01:28:07;153038.09;;;15.61;100.00
10006;BME280;5042;42.626;23.382;2023-09-19T01:30:43;153013.38;;;15.51;100.00
10006;BME280;5042;42.626;23.382;2023-09-19T01:33:10;153048.53;;;15.65;100.00
10006;BME280;5042;42.626;23.382;2023-09-19T01:35:37;153079.81;;;15.77;100.00
10006;BME280;5042;42.626;23.382;2023-09-19T01:38:05;153075.94;;;15.76;100.00
10006;BME280;5042;42.626;23.382;2023-09-19T01:40:41;153056.31;;;15.68;100.00
10006;BME280;5042;42.626;23.382;2023-09-19T01:43:14;153047.22;;;15.64;100.00
10006;BME280;5042;42.626;23.382;2023-09-19T01:45:49;153031.59;;;15.58;100.00
10006;BME280;5042;42.626;23.382;2023-09-19T01:48:25;153036.81;;;15.60;100.00
10006;BME280;5042;42.626;23.382;2023-09-19T01:51:00;153026.38;;;15.56;100.00
10006;BME280;5042;42.626;23.382;2023-09-19T01:53:33;153010.78;;;15.50;100.00
10006;BME280;5042;42.626;23.382;2023-09-19T01:56:01;152965.22;;;15.32;100.00
10006;BME280;5042;42.626;23.382;2023-09-19T01:58:34;153021.22;;;15.54;100.00
10006;BME280;5042;42.626;23.382;2023-09-19T02:01:04;153057.66;;;15.68;100.00
10006;BME280;5042;42.626;23.382;2023-09-19T02:03:33;153073.31;;;15.75;100.00
10006;BME280;5042;42.626;23.382;2023-09-19T02:06:01;153056.31;;;15.68;100.00
10006;BME280;5042;42.626;23.382;2023-09-19T02:08:30;153002.94;;;15.47;100.00
10006;BME280;5042;42.626;23.382;2023-09-19T02:10:58;153029.00;;;15.57;100.00
10006;BME280;5042;42.626;23.382;2023-09-19T02:13:26;153047.22;;;15.64;100.00
10006;BME280;5042;42.626;23.382;2023-09-19T02:15:53;153060.25;;;15.69;100.00
10006;BME280;5042;42.626;23.382;2023-09-19T02:18:22;153062.88;;;15.71;100.00
10006;BME280;5042;42.626;23.382;2023-09-19T02:20:49;153073.31;;;15.75;100.00
10006;BME280;5042;42.626;23.382;2023-09-19T02:23:18;153086.31;;;15.80;100.00
10006;BME280;5042;42.626;23.382;2023-09-19T02:25:51;153091.53;;;15.82;100.00
10006;BME280;5042;42.626;23.382;2023-09-19T02:28:19;153087.66;;;15.80;100.00
10006;BME280;5042;42.626;23.382;2023-09-19T02:30:47;153100.66;;;15.85;100.00
10006;BME280;5042;42.626;23.382;2023-09-19T02:33:15;153081.09;;;15.78;100.00
10006;BME280;5042;42.626;23.382;2023-09-19T02:35:44;153077.22;;;15.76;100.00
10006;BME280;5042;42.626;23.382;2023-09-19T02:38:11;153065.50;;;15.72;100.00
10006;BME280;5042;42.626;23.382;2023-09-19T02:40:38;153035.50;;;15.60;100.00
10006;BME280;5042;42.626;23.382;2023-09-19T02:43:05;153068.09;;;15.73;100.00
10006;BME280;5042;42.626;23.382;2023-09-19T02:45:33;153047.22;;;15.64;100.00
10006;BME280;5042;42.626;23.382;2023-09-19T02:48:00;153047.22;;;15.64;100.00
10006;BME280;5042;42.626;23.382;2023-09-19T02:50:29;153047.22;;;15.64;100.00
10006;BME280;5042;42.626;23.382;2023-09-19T02:52:58;153040.72;;;15.62;100.00
10006;BME280;5042;42.626;23.382;2023-09-19T02:55:25;152975.63;;;15.36;100.00
10006;BME280;5042;42.626;23.382;2023-09-19T02:57:53;152976.94;;;15.37;100.00
10006;BME280;5042;42.626;23.382;2023-09-19T03:00:21;152956.13;;;15.29;100.00
10006;BME280;5042;42.626;23.382;2023-09-19T03:02:48;152963.91;;;15.32;100.00
10006;BME280;5042;42.626;23.382;2023-09-19T03:05:15;152934.00;;;15.20;100.00
10006;BME280;5042;42.626;23.382;2023-09-19T03:07:42;152919.69;;;15.14;100.00
10006;BME280;5042;42.626;23.382;2023-09-19T03:10:12;152922.28;;;15.15;100.00
10006;BME280;5042;42.626;23.382;2023-09-19T03:12:40;152927.50;;;15.17;100.00
10006;BME280;5042;42.626;23.382;2023-09-19T03:15:08;152924.91;;;15.16;100.00
10006;BME280;5042;42.626;23.382;2023-09-19T03:17:35;152917.06;;;15.13;100.00
10006;BME280;5042;42.626;23.382;2023-09-19T03:20:02;152901.47;;;15.07;100.00
10006;BME280;5042;42.626;23.382;2023-09-19T03:22:30;152831.22;;;14.79;100.00
10006;BME280;5042;42.626;23.382;2023-09-19T03:24:56;152919.69;;;15.14;100.00
10006;BME280;5042;42.626;23.382;2023-09-19T03:27:25;152927.50;;;15.17;100.00
10006;BME280;5042;42.626;23.382;2023-09-19T03:29:52;152944.41;;;15.24;100.00
10006;BME280;5042;42.626;23.382;2023-09-19T03:32:19;152940.50;;;15.22;100.00
10006;BME280;5042;42.626;23.382;2023-09-19T03:34:46;152904.06;;;15.08;100.00
10006;BME280;5042;42.626;23.382;2023-09-19T03:37:14;152891.06;;;15.03;100.00
10006;BME280;5042;42.626;23.382;2023-09-19T03:39:41;152888.47;;;15.02;100.00
10006;BME280;5042;42.626;23.382;2023-09-19T03:42:08;152887.13;;;15.01;100.00
10006;BME280;5042;42.626;23.382;2023-09-19T03:44:36;152858.56;;;14.90;100.00
10006;BME280;5042;42.626;23.382;2023-09-19T03:47:04;152888.47;;;15.02;100.00
10006;BME280;5042;42.626;23.382;2023-09-19T03:49:31;152914.47;;;15.12;100.00
10006;BME280;5042;42.626;23.382;2023-09-19T03:51:57;152928.78;;;15.18;100.00
10006;BME280;5042;42.626;23.382;2023-09-19T03:54:24;152927.50;;;15.17;100.00
10006;BME280;5042;42.626;23.382;2023-09-19T03:56:51;152915.78;;;15.13;100.00
10006;BME280;5042;42.626;23.382;2023-09-19T03:59:18;152901.47;;;15.07;100.00
10006;BME280;5042;42.626;23.382;2023-09-19T04:01:46;152909.28;;;15.10;100.00
10006;BME280;5042;42.626;23.382;2023-09-19T04:04:13;152905.34;;;15.09;100.00
10006;BME280;5042;42.626;23.382;2023-09-19T04:06:41;152900.13;;;15.06;100.00
10006;BME280;5042;42.626;23.382;2023-09-19T04:09:07;152915.78;;;15.13;100.00
10006;BME280;5042;42.626;23.382;2023-09-19T04:11:34;152902.78;;;15.08;100.00
10006;BME280;5042;42.626;23.382;2023-09-19T04:14:03;152901.47;;;15.07;100.00
10006;BME280;5042;42.626;23.382;2023-09-19T04:16:30;152905.34;;;15.09;100.00
10006;BME280;5042;42.626;23.382;2023-09-19T04:18:58;152948.28;;;15.25;100.00
10006;BME280;5042;42.626;23.382;2023-09-19T04:21:25;152958.72;;;15.30;100.00
10006;BME280;5042;42.626;23.382;2023-09-19T04:23:52;152979.56;;;15.38;100.00
10006;BME280;5042;42.626;23.382;2023-09-19T04:26:18;152984.72;;;15.40;100.00
10006;BME280;5042;42.626;23.382;2023-09-19T04:28:45;152976.94;;;15.37;100.00
10006;BME280;5042;42.626;23.382;2023-09-19T04:31:12;152975.63;;;15.36;100.00
10006;BME280;5042;42.626;23.382;2023-09-19T04:33:39;152989.94;;;15.42;100.00
10006;BME280;5042;42.626;23.382;2023-09-19T04:36:07;153009.50;;;15.50;100.00
10006;BME280;5042;42.626;23.382;2023-09-19T04:38:35;152992.56;;;15.43;100.00
10006;BME280;5042;42.626;23.382;2023-09-19T04:41:02;153012.06;;;15.51;100.00
10006;BME280;5042;42.626;23.382;2023-09-19T04:43:29;153025.09;;;15.56;100.00
10006;BME280;5042;42.626;23.382;2023-09-19T04:45:56;153023.78;;;15.55;100.00
10006;BME280;5042;42.626;23.382;2023-09-19T04:48:25;153031.59;;;15.58;100.00
10006;BME280;5042;42.626;23.382;2023-09-19T04:50:54;153021.22;;;15.54;100.00
10006;BME280;5042;42.626;23.382;2023-09-19T04:53:22;153055.03;;;15.67;100.00
10006;BME280;5042;42.626;23.382;2023-09-19T04:55:50;153082.44;;;15.78;100.00
10006;BME280;5042;42.626;23.382;2023-09-19T04:58:18;153073.31;;;15.75;100.00
10006;BME280;5042;42.626;23.382;2023-09-19T05:00:45;153075.94;;;15.76;100.00
10006;BME280;5042;42.626;23.382;2023-09-19T05:03:12;153101.94;;;15.86;100.00
10006;BME280;5042;42.626;23.382;2023-09-19T05:05:39;153104.53;;;15.87;100.00
10006;BME280;5042;42.626;23.382;2023-09-19T05:08:08;153112.38;;;15.90;100.00
10006;BME280;5042;42.626;23.382;2023-09-19T05:10:36;153075.94;;;15.76;100.00
10006;BME280;5042;42.626;23.382;2023-09-19T05:13:04;153101.94;;;15.86;100.00
10006;BME280;5042;42.626;23.382;2023-09-19T05:15:32;153126.69;;;15.96;100.00
10006;BME280;5042;42.626;23.382;2023-09-19T05:18:01;153120.19;;;15.93;100.00
10006;BME280;5042;42.626;23.382;2023-09-19T05:20:28;153135.81;;;15.99;100.00
10006;BME280;5042;42.626;23.382;2023-09-19T05:22:58;153163.13;;;16.10;100.00
10006;BME280;5042;42.626;23.382;2023-09-19T05:25:27;153200.91;;;16.25;100.00
10006;BME280;5042;42.626;23.382;2023-09-19T05:27:56;153224.34;;;16.34;100.00
10006;BME280;5042;42.626;23.382;2023-09-19T05:30:25;153260.81;;;16.48;100.00
10006;BME280;5042;42.626;23.382;2023-09-19T05:32:53;153268.66;;;16.51;100.00
10006;BME280;5042;42.626;23.382;2023-09-19T05:35:20;153294.69;;;16.62;100.00
10006;BME280;5042;42.626;23.382;2023-09-19T05:37:48;153328.53;;;16.75;100.00
10006;BME280;5042;42.626;23.382;2023-09-19T05:40:16;153357.25;;;16.86;100.00
10006;BME280;5042;42.626;23.382;2023-09-19T05:42:43;153427.63;;;17.14;100.00
10006;BME280;5042;42.626;23.382;2023-09-19T05:45:12;153464.13;;;17.28;100.00
10006;BME280;5042;42.626;23.382;2023-09-19T05:47:39;153499.31;;;17.42;100.00
10006;BME280;5042;42.626;23.382;2023-09-19T05:50:10;153544.91;;;17.60;100.00
10006;BME280;5042;42.626;23.382;2023-09-19T05:52:37;153619.28;;;17.89;100.00
10006;BME280;5042;42.626;23.382;2023-09-19T05:55:04;153660.97;;;18.06;100.00
10006;BME280;5042;42.626;23.382;2023-09-19T05:57:32;153584.03;;;17.75;100.00
10006;BME280;5042;42.626;23.382;2023-09-19T05:59:59;153624.47;;;17.91;100.00
10006;BME280;5042;42.626;23.382;2023-09-19T06:02:27;153670.13;;;18.09;100.00
10006;BME280;5042;42.626;23.382;2023-09-19T06:04:55;153591.84;;;17.78;100.00
10006;BME280;5042;42.626;23.382;2023-09-19T06:07:22;153568.38;;;17.69;100.00
10006;BME280;5042;42.626;23.382;2023-09-19T06:09:51;153623.19;;;17.91;100.00
10006;BME280;5042;42.626;23.382;2023-09-19T06:12:19;153649.28;;;18.01;100.00
10006;BME280;5042;42.626;23.382;2023-09-19T06:14:45;153655.78;;;18.04;100.00
10006;BME280;5042;42.626;23.382;2023-09-19T06:17:13;153730.09;;;18.33;100.00
10006;BME280;5042;42.626;23.382;2023-09-19T06:19:42;153761.41;;;18.45;100.00
10006;BME280;5042;42.626;23.382;2023-09-19T06:22:15;153764.03;;;18.46;100.00
10006;BME280;5042;42.626;23.382;2023-09-19T06:24:43;153745.78;;;18.39;100.00
10006;BME280;5042;42.626;23.382;2023-09-19T06:27:10;153928.44;;;19.11;100.00
10006;BME280;5042;42.626;23.382;2023-09-19T06:29:36;154052.41;;;19.59;100.00
10006;BME280;5042;42.626;23.382;2023-09-19T06:32:07;154246.97;;;20.36;100.00
10006;BME280;5042;42.626;23.382;2023-09-19T06:34:34;154342.38;;;20.73;100.00
10006;BME280;5042;42.626;23.382;2023-09-19T06:37:02;154390.72;;;20.92;100.00
10006;BME280;5042;42.626;23.382;2023-09-19T06:39:30;154500.44;;;21.35;100.00
10006;BME280;5042;42.626;23.382;2023-09-19T06:41:57;154586.75;;;21.69;100.00
10006;BME280;5042;42.626;23.382;2023-09-19T06:44:27;154495.22;;;21.33;100.00
10006;BME280;5042;42.626;23.382;2023-09-19T06:46:55;154277.00;;;20.47;100.00
10006;BME280;5042;42.626;23.382;2023-09-19T06:49:22;154256.13;;;20.39;100.00
10006;BME280;5042;42.626;23.382;2023-09-19T06:51:49;154246.97;;;20.36;100.00
10006;BME280;5042;42.626;23.382;2023-09-19T06:54:17;154194.78;;;20.15;100.00
10006;BME280;5042;42.626;23.382;2023-09-19T06:56:44;154081.19;;;19.70;100.00
10006;BME280;5042;42.626;23.382;2023-09-19T06:59:10;154023.69;;;19.48;100.00
10006;BME280;5042;42.626;23.382;2023-09-19T07:01:40;153920.59;;;19.07;100.00
10006;BME280;5042;42.626;23.382;2023-09-19T07:04:09;153925.81;;;19.10;100.00
10006;BME280;5042;42.626;23.382;2023-09-19T07:06:38;153886.69;;;18.94;100.00
10006;BME280;5042;42.626;23.382;2023-09-19T07:09:05;153873.66;;;18.89;100.00
10006;BME280;5042;42.626;23.382;2023-09-19T07:11:35;153834.44;;;18.74;100.00
10006;BME280;5042;42.626;23.382;2023-09-19T07:14:02;153774.44;;;18.50;100.00
10006;BME280;5042;42.626;23.382;2023-09-19T07:16:31;153743.16;;;18.38;100.00
10006;BME280;5042;42.626;23.382;2023-09-19T07:18:57;153737.94;;;18.36;100.00
10006;BME280;5042;42.626;23.382;2023-09-19T07:21:24;153761.41;;;18.45;100.00
10006;BME280;5042;42.626;23.382;2023-09-19T07:23:51;153844.94;;;18.78;100.00
10006;BME280;5042;42.626;23.382;2023-09-19T07:26:18;153919.28;;;19.07;100.00
10006;BME280;5042;42.626;23.382;2023-09-19T07:28:46;153933.69;;;19.13;100.00
10006;BME280;5042;42.626;23.382;2023-09-19T07:31:13;153928.44;;;19.11;100.00
10006;BME280;5042;42.626;23.382;2023-09-19T07:33:40;153868.44;;;18.87;100.00
10006;BME280;5042;42.626;23.382;2023-09-19T07:36:10;153834.44;;;18.74;100.00
10006;BME280;5042;42.626;23.382;2023-09-19T07:38:39;153868.44;;;18.87;100.00
10006;BME280;5042;42.626;23.382;2023-09-19T07:41:06;153854.06;;;18.81;100.00
10006;BME280;5042;42.626;23.382;2023-09-19T07:43:34;153852.75;;;18.81;100.00
10006;BME280;5042;42.626;23.382;2023-09-19T07:46:05;153897.16;;;18.98;100.00
10006;BME280;5042;42.626;23.382;2023-09-19T07:48:34;153941.50;;;19.16;100.00
10006;BME280;5042;42.626;23.382;2023-09-19T07:51:04;153958.47;;;19.22;100.00
10006;BME280;5042;42.626;23.382;2023-09-19T07:53:31;153967.56;;;19.26;100.00
10006;BME280;5042;42.626;23.382;2023-09-19T07:56:04;153962.34;;;19.24;100.00
10006;BME280;5042;42.626;23.382;2023-09-19T07:58:31;153978.03;;;19.30;100.00
10006;BME280;5042;42.626;23.382;2023-09-19T08:01:04;153991.06;;;19.35;100.00
10006;BME280;5042;42.626;23.382;2023-09-19T08:03:31;153988.47;;;19.34;100.00
10006;BME280;5042;42.626;23.382;2023-09-19T08:05:58;154000.22;;;19.39;100.00
10006;BME280;5042;42.626;23.382;2023-09-19T08:08:26;154031.53;;;19.51;100.00
10006;BME280;5042;42.626;23.382;2023-09-19T08:10:53;154055.03;;;19.60;100.00
10006;BME280;5042;42.626;23.382;2023-09-19T08:13:22;154116.44;;;19.84;100.00
10006;BME280;5042;42.626;23.382;2023-09-19T08:15:49;154111.19;;;19.82;100.00
10006;BME280;5042;42.626;23.382;2023-09-19T08:18:19;154146.47;;;19.96;100.00
10006;BME280;5042;42.626;23.382;2023-09-19T08:20:52;154219.56;;;20.25;100.00
10006;BME280;5042;42.626;23.382;2023-09-19T08:23:19;154226.09;;;20.27;100.00
10006;BME280;5042;42.626;23.382;2023-09-19T08:25:46;154297.97;;;20.56;100.00
10006;BME280;5042;42.626;23.382;2023-09-19T08:28:13;154361.97;;;20.81;100.00
10006;BME280;5042;42.626;23.382;2023-09-19T08:30:45;154380.25;;;20.88;100.00
10006;BME280;5042;42.626;23.382;2023-09-19T08:33:12;154333.25;;;20.69;100.00
10006;BME280;5042;42.626;23.382;2023-09-19T08:35:42;154342.38;;;20.73;100.00
10006;BME280;5042;42.626;23.382;2023-09-19T08:38:10;154398.53;;;20.95;100.00
10006;BME280;5042;42.626;23.382;2023-09-19T08:40:39;154297.97;;;20.56;100.00
10006;BME280;5042;42.626;23.382;2023-09-19T08:43:07;154361.97;;;20.81;100.00
10006;BME280;5042;42.626;23.382;2023-09-19T08:45:34;154423.41;;;21.05;100.00
10006;BME280;5042;42.626;23.382;2023-09-19T08:48:13;154482.16;;;21.28;100.00
10006;BME280;5042;42.626;23.382;2023-09-19T08:50:49;154512.25;;;21.39;100.00
10006;BME280;5042;42.626;23.382;2023-09-19T08:53:21;154580.22;;;21.66;100.00
10006;BME280;5042;42.626;23.382;2023-09-19T08:55:53;154620.75;;;21.82;100.00
10006;BME280;5042;42.626;23.382;2023-09-19T08:58:21;154599.84;;;21.74;100.00
10006;BME280;5042;42.626;23.382;2023-09-19T09:00:54;154558.03;;;21.57;100.00
10006;BME280;5042;42.626;23.382;2023-09-19T09:03:22;154563.25;;;21.59;100.00
10006;BME280;5042;42.626;23.382;2023-09-19T09:05:51;154629.91;;;21.86;100.00
10006;BME280;5042;42.626;23.382;2023-09-19T09:08:19;154716.19;;;22.19;100.00
10006;BME280;5042;42.626;23.382;2023-09-19T09:10:47;154758.09;;;22.36;100.00
10006;BME280;5042;42.626;23.382;2023-09-19T09:13:14;154781.63;;;22.45;100.00
10006;BME280;5042;42.626;23.382;2023-09-19T09:15:41;154720.19;;;22.21;100.00
10006;BME280;5042;42.626;23.382;2023-09-19T09:18:10;154624.69;;;21.84;100.00
10006;BME280;5042;42.626;23.382;2023-09-19T09:20:37;154598.50;;;21.73;100.00
10006;BME280;5042;42.626;23.382;2023-09-19T09:23:05;154678.28;;;22.05;100.00
10006;BME280;5042;42.626;23.382;2023-09-19T09:25:49;154602.44;;;21.75;100.00
10006;BME280;5042;42.626;23.382;2023-09-19T09:28:21;154314.97;;;20.62;100.00
10006;BME280;5042;42.626;23.382;2023-09-19T09:30:48;154606.38;;;21.76;100.00
10006;BME280;5042;42.626;23.382;2023-09-19T09:33:15;154669.13;;;22.01;100.00
10006;BME280;5042;42.626;23.382;2023-09-19T09:35:50;154675.66;;;22.03;100.00
10006;BME280;5042;42.626;23.382;2023-09-19T09:38:20;154844.38;;;22.70;100.00
10006;BME280;5042;42.626;23.382;2023-09-19T09:40:52;154874.47;;;22.81;100.00
10006;BME280;5042;42.626;23.382;2023-09-19T09:43:27;154922.91;;;23.00;100.00
10006;BME280;5042;42.626;23.382;2023-09-19T09:46:12;154976.56;;;23.21;100.00
10006;BME280;5042;42.626;23.382;2023-09-19T09:48:58;154966.06;;;23.17;100.00
10006;BME280;5042;42.626;23.382;2023-09-19T09:51:42;155106.06;;;23.72;100.00
10006;BME280;5042;42.626;23.382;2023-09-19T09:54:15;155134.94;;;23.83;100.00
10006;BME280;5042;42.626;23.382;2023-09-19T09:56:53;155167.63;;;23.96;100.00
10006;BME280;5042;42.626;23.382;2023-09-19T09:59:44;155230.50;;;24.21;100.00
10006;BME280;5042;42.626;23.382;2023-09-19T10:02:12;155293.31;;;24.45;100.00
10006;BME280;5042;42.626;23.382;2023-09-19T10:04:42;155332.66;;;24.61;100.00
10006;BME280;5042;42.626;23.382;2023-09-19T10:07:27;155377.19;;;24.78;100.00
10006;BME280;5042;42.626;23.382;2023-09-19T10:09:59;155396.81;;;24.86;95.28
10006;BME280;5042;42.626;23.382;2023-09-19T10:12:37;155252.72;;;24.29;98.12
10006;BME280;5042;42.626;23.382;2023-09-19T10:15:06;155235.75;;;24.23;97.31
10006;BME280;5042;42.626;23.382;2023-09-19T10:17:36;155102.19;;;23.70;100.00
10006;BME280;5042;42.626;23.382;2023-09-19T10:20:05;155087.75;;;23.65;99.03
10006;BME280;5042;42.626;23.382;2023-09-19T10:22:46;155099.53;;;23.69;100.00
10006;BME280;5042;42.626;23.382;2023-09-19T10:25:25;155044.56;;;23.48;100.00
10006;BME280;5042;42.626;23.382;2023-09-19T10:27:54;154994.88;;;23.28;100.00
10006;BME280;5042;42.626;23.382;2023-09-19T10:30:23;154932.03;;;23.04;100.00
10006;BME280;5042;42.626;23.382;2023-09-19T10:33:02;154900.59;;;22.92;100.00
10006;BME280;5042;42.626;23.382;2023-09-19T10:35:29;154835.25;;;22.66;100.00
10006;BME280;5042;42.626;23.382;2023-09-19T10:37:59;154781.63;;;22.45;100.00
10006;BME280;5042;42.626;23.382;2023-09-19T10:40:29;154799.94;;;22.52;100.00
10006;BME280;5042;42.626;23.382;2023-09-19T10:43:01;154830.00;;;22.64;100.00
10006;BME280;5042;42.626;23.382;2023-09-19T10:45:31;154840.44;;;22.68;100.00
10006;BME280;5042;42.626;23.382;2023-09-19T10:47:58;154905.84;;;22.94;100.00
10006;BME280;5042;42.626;23.382;2023-09-19T10:50:27;154963.47;;;23.16;100.00
10006;BME280;5042;42.626;23.382;2023-09-19T10:52:59;155002.72;;;23.32;100.00
10006;BME280;5042;42.626;23.382;2023-09-19T10:55:32;155041.97;;;23.47;100.00
10006;BME280;5042;42.626;23.382;2023-09-19T10:58:00;155065.50;;;23.56;100.00
10006;BME280;5042;42.626;23.382;2023-09-19T11:00:30;155066.84;;;23.57;100.00
10006;BME280;5042;42.626;23.382;2023-09-19T11:03:19;155044.56;;;23.48;100.00
10006;BME280;5042;42.626;23.382;2023-09-19T11:06:07;155013.19;;;23.36;100.00
10006;BME280;5042;42.626;23.382;2023-09-19T11:09:01;154971.31;;;23.19;100.00
10006;BME280;5042;42.626;23.382;2023-09-19T11:11:50;154968.72;;;23.18;100.00
10006;BME280;5042;42.626;23.382;2023-09-19T11:14:39;155009.25;;;23.34;100.00
10006;BME280;5042;42.626;23.382;2023-09-19T11:17:39;155065.50;;;23.56;100.00
10006;BME280;5042;42.626;23.382;2023-09-19T11:20:20;155087.75;;;23.65;100.00
10006;BME280;5042;42.626;23.382;2023-09-19T11:23:21;155120.56;;;23.78;100.00
10006;BME280;5042;42.626;23.382;2023-09-19T11:25:53;155159.78;;;23.93;100.00
10006;BME280;5042;42.626;23.382;2023-09-19T11:28:34;155234.38;;;24.22;100.00
10006;BME280;5042;42.626;23.382;2023-09-19T11:34:48;155212.16;;;24.13;100.00
10006;BME280;5042;42.626;23.382;2023-09-19T11:40:28;155201.69;;;24.09;100.00
10006;BME280;5042;42.626;23.382;2023-09-19T11:42:56;155268.44;;;24.36;100.00
10006;BME280;5042;42.626;23.382;2023-09-19T11:48:28;155293.31;;;24.45;100.00
10006;BME280;5042;42.626;23.382;2023-09-19T11:50:56;155302.56;;;24.49;98.12
10006;BME280;5042;42.626;23.382;2023-09-19T11:53:31;155353.59;;;24.69;100.00
10006;BME280;5042;42.626;23.382;2023-09-19T11:56:01;155364.09;;;24.73;100.00
10006;BME280;5042;42.626;23.382;2023-09-19T11:58:30;155377.19;;;24.78;96.95
10006;BME280;5042;42.626;23.382;2023-09-19T12:00:59;155395.50;;;24.85;95.22
10006;BME280;5042;42.626;23.382;2023-09-19T12:03:31;155412.53;;;24.92;100.00
10006;BME280;5042;42.626;23.382;2023-09-19T12:05:59;155403.34;;;24.88;100.00
10006;BME280;5042;42.626;23.382;2023-09-19T12:08:28;155441.31;;;25.03;100.00
10006;BME280;5042;42.626;23.382;2023-09-19T12:10:55;155445.28;;;25.05;97.75
10006;BME280;5042;42.626;23.382;2023-09-19T12:13:23;155352.31;;;24.68;98.13
10006;BME280;5042;42.626;23.382;2023-09-19T12:15:51;155330.03;;;24.60;96.71
10006;BME280;5042;42.626;23.382;2023-09-19T12:18:27;155327.44;;;24.59;97.28
10006;BME280;5042;42.626;23.382;2023-09-19T12:20:57;155314.28;;;24.53;100.00
10006;BME280;5042;42.626;23.382;2023-09-19T12:23:24;155354.91;;;24.69;99.11
10006;BME280;5042;42.626;23.382;2023-09-19T12:25:52;155398.09;;;24.86;100.00
10006;BME280;5042;42.626;23.382;2023-09-19T12:28:26;155424.34;;;24.96;95.84
10006;BME280;5042;42.626;23.382;2023-09-19T12:30:54;155367.97;;;24.74;96.17
10006;BME280;5042;42.626;23.382;2023-09-19T12:33:21;155356.19;;;24.70;100.00
10006;BME280;5042;42.626;23.382;2023-09-19T12:35:51;155366.69;;;24.74;100.00
10006;BME280;5042;42.626;23.382;2023-09-19T12:38:25;155379.78;;;24.79;96.25
10006;BME280;5042;42.626;23.382;2023-09-19T12:40:51;155387.66;;;24.82;100.00
10006;BME280;5042;42.626;23.382;2023-09-19T12:43:18;155398.09;;;24.86;92.42
10006;BME280;5042;42.626;23.382;2023-09-19T12:45:45;155446.56;;;25.05;97.69
10006;BME280;5042;42.626;23.382;2023-09-19T12:48:23;155527.84;;;25.37;99.01
10006;BME280;5042;42.626;23.382;2023-09-19T12:51:04;155558.00;;;25.49;92.67
10006;BME280;5042;42.626;23.382;2023-09-19T12:53:35;155554.03;;;25.47;94.70
10006;BME280;5042;42.626;23.382;2023-09-19T12:56:06;155485.94;;;25.21;93.05
10006;BME280;5042;42.626;23.382;2023-09-19T12:58:48;155531.75;;;25.38;92.45
10006;BME280;5042;42.626;23.382;2023-09-19T13:01:15;155526.50;;;25.36;89.71
10006;BME280;5042;42.626;23.382;2023-09-19T13:03:43;155509.50;;;25.30;90.54
10006;BME280;5042;42.626;23.382;2023-09-19T13:06:09;155488.53;;;25.22;91.93
10006;BME280;5042;42.626;23.382;2023-09-19T13:08:39;155538.31;;;25.41;96.50